KLCK/LCK METAR and TAF weather

Enter ICAO airport designator
Station Type Date Time Source
KLCK METAR 2022/06/28 15:55 UTC NOAA

KLCK 281555Z AUTO 20005KT 10SM CLR 22/08 A3026 RMK AO2 T02220081


Station Type Date Time Source
KLCK Decoded METAR 2022/06/28 15:55 UTC NOAA

Rickenbacker Air National Guard Base, OH, United States (KLCK) 39-49N 082-56W
Jun 28, 2022 - 11:55 AM EDT / 2022.06.28 1555 UTC
Wind: from the SSW (200 degrees) at 6 MPH (5 KT):0
Visibility: 10 mile(s):0
Sky conditions: clear
Temperature: 72.0 F (22.2 C)
Dew Point: 46.6 F (8.1 C)
Relative Humidity: 40%
Pressure (altimeter): 30.26 in. Hg (1024 hPa)
ob: KLCK 281555Z AUTO 20005KT 10SM CLR 22/08 A3026 RMK AO2 T02220081
cycle: 16

Station Type Date Time Source
KLCK TAF 2022/06/28 12:27 UTC NOAA

TAF KLCK 281121Z 2812/2912 VRB04KT P6SM SCT250

Example: see airport list